createdAt,value
2019-04-06T00:00:14.680Z,72.45
2019-04-06T00:02:44.938Z,72.97
2019-04-06T00:05:14.648Z,76.92
2019-04-06T00:07:45.341Z,74.05
2019-04-06T00:10:15.450Z,74.10
2019-04-06T00:12:44.756Z,75.62
2019-04-06T00:15:14.286Z,77.30
2019-04-06T00:17:43.600Z,77.60
2019-04-06T00:20:13.007Z,80.17
2019-04-06T00:22:42.576Z,79.10
2019-04-06T00:25:13.229Z,82.78
2019-04-06T00:27:42.570Z,80.00
2019-04-06T00:30:12.291Z,85.25
2019-04-06T00:32:55.361Z,78.90
2019-04-06T00:37:53.554Z,81.05
2019-04-06T00:40:22.860Z,78.22
2019-04-06T00:42:52.436Z,80.05
2019-04-06T00:45:21.774Z,78.35
2019-04-06T00:47:51.276Z,81.47
2019-04-06T00:50:21.622Z,76.15
2019-04-06T00:52:52.001Z,85.07
2019-04-06T00:55:21.306Z,85.72
2019-04-06T00:57:50.662Z,77.20
2019-04-06T01:00:20.262Z,88.25
2019-04-06T01:02:49.661Z,92.22
2019-04-06T01:05:19.217Z,85.25
2019-04-06T01:07:48.541Z,82.95
2019-04-06T01:10:17.940Z,90.25
2019-04-06T01:12:47.289Z,89.90
2019-04-06T01:15:16.635Z,86.90
2019-04-06T01:17:46.095Z,89.75
2019-04-06T01:20:15.521Z,94.10
2019-04-06T01:22:44.894Z,93.70
2019-04-06T01:25:14.453Z,94.70
2019-04-06T01:27:43.779Z,100.10
2019-04-06T01:30:13.215Z,97.33
2019-04-06T01:32:42.694Z,96.97
2019-04-06T01:35:12.040Z,97.55
2019-04-06T01:37:41.354Z,90.10
2019-04-06T01:40:11.307Z,93.10
2019-04-06T01:42:40.617Z,93.42
2019-04-06T01:45:10.283Z,93.03
2019-04-06T01:47:39.604Z,90.90
2019-04-06T01:50:09.161Z,88.42
2019-04-06T01:52:38.680Z,91.50
2019-04-06T01:55:08.049Z,94.20
2019-04-06T01:57:37.356Z,95.40
2019-04-06T02:00:09.711Z,96.28
2019-04-06T02:02:40.749Z,94.97
2019-04-06T02:05:10.932Z,96.57
2019-04-06T02:07:40.246Z,94.50
2019-04-06T02:10:10.660Z,96.35
2019-04-06T02:12:39.957Z,96.50
2019-04-06T02:15:09.734Z,95.83
2019-04-06T02:17:39.030Z,97.10
2019-04-06T02:20:08.744Z,102.87
2019-04-06T02:22:38.075Z,87.85
2019-04-06T02:25:09.006Z,101.65
2019-04-06T02:27:38.376Z,99.90
2019-04-06T02:30:19.190Z,97.65
2019-04-06T02:32:59.188Z,96.28
2019-04-06T02:35:30.342Z,94.80
2019-04-06T02:38:01.371Z,107.17
2019-04-06T02:40:32.363Z,99.07
2019-04-06T02:43:03.305Z,100.20
2019-04-06T02:45:32.641Z,100.35
2019-04-06T02:48:01.954Z,93.50
2019-04-06T02:50:31.278Z,99.30
2019-04-06T02:53:00.613Z,102.38
2019-04-06T02:55:31.245Z,102.20
2019-04-06T02:58:00.771Z,104.60
2019-04-06T03:00:30.603Z,104.43
2019-04-06T03:03:00.016Z,97.62
2019-04-06T03:05:29.422Z,101.20
2019-04-06T03:08:01.657Z,102.58
2019-04-06T03:10:31.140Z,108.07
2019-04-06T03:13:00.454Z,109.65
2019-04-06T03:15:29.793Z,108.27
2019-04-06T03:17:59.285Z,112.15
2019-04-06T03:20:28.721Z,114.72
2019-04-06T03:22:57.979Z,117.37
2019-04-06T03:25:27.700Z,117.75
2019-04-06T03:27:57.199Z,124.20
2019-04-06T03:30:26.944Z,123.33
2019-04-06T03:32:56.930Z,122.72
2019-04-06T03:35:27.714Z,133.97
2019-04-06T03:37:57.296Z,133.30
2019-04-06T03:40:26.761Z,122.33
2019-04-06T03:42:56.098Z,120.30
2019-04-06T03:45:25.409Z,127.65
2019-04-06T03:47:54.770Z,125.02
2019-04-06T03:50:25.162Z,131.52
2019-04-06T03:52:54.530Z,123.95
2019-04-06T03:55:23.812Z,127.60
2019-04-06T03:57:53.179Z,126.75
2019-04-06T04:00:22.658Z,126.20
2019-04-06T04:02:52.594Z,128.47
2019-04-06T04:05:22.059Z,125.38
2019-04-06T04:07:51.373Z,131.55
2019-04-06T04:10:31.818Z,132.05
2019-04-06T04:13:01.260Z,122.45
2019-04-06T04:15:30.467Z,128.38
2019-04-06T04:18:00.553Z,127.92
2019-04-06T04:20:29.956Z,129.47
2019-04-06T04:22:59.712Z,128.10
2019-04-06T04:25:29.163Z,125.10
2019-04-06T04:27:58.684Z,127.78
2019-04-06T04:30:32.790Z,126.40
2019-04-06T04:32:59.455Z,120.90
2019-04-06T04:35:29.148Z,130.52
2019-04-06T04:37:59.607Z,126.18
2019-04-06T04:40:28.951Z,132.10
2019-04-06T04:42:58.270Z,124.58
2019-04-06T04:45:27.864Z,128.85
2019-04-06T04:47:57.256Z,123.78
2019-04-06T04:50:26.599Z,120.75
2019-04-06T04:52:55.912Z,119.95
2019-04-06T04:55:25.200Z,122.80
2019-04-06T04:57:54.707Z,121.57
2019-04-06T05:00:24.065Z,114.62
2019-04-06T05:02:53.379Z,122.87
2019-04-06T05:05:22.709Z,123.65
2019-04-06T05:07:51.997Z,122.55
2019-04-06T05:10:21.347Z,116.20
2019-04-06T05:12:50.658Z,122.60
2019-04-06T05:15:32.210Z,116.33
2019-04-06T05:18:01.656Z,119.80
2019-04-06T05:20:30.946Z,125.82
2019-04-06T05:23:00.419Z,118.93
2019-04-06T05:25:29.700Z,123.92
2019-04-06T05:27:59.101Z,118.80
2019-04-06T05:30:28.448Z,117.62
2019-04-06T05:32:58.056Z,116.00
2019-04-06T05:35:27.333Z,124.60
2019-04-06T05:37:56.651Z,117.25
2019-04-06T05:40:25.922Z,118.28
2019-04-06T05:42:55.238Z,116.80
2019-04-06T05:45:24.636Z,116.97
2019-04-06T05:47:53.978Z,118.77
2019-04-06T05:50:24.467Z,115.03
2019-04-06T05:52:53.778Z,115.77
2019-04-06T05:55:24.466Z,118.33
2019-04-06T05:58:03.702Z,117.15
2019-04-06T06:00:25.218Z,115.28
2019-04-06T06:02:54.520Z,124.33
2019-04-06T06:05:23.807Z,121.75
2019-04-06T06:07:53.098Z,117.57
2019-04-06T06:10:22.386Z,118.95
2019-04-06T06:12:51.905Z,119.47
2019-04-06T06:15:21.224Z,121.53
2019-04-06T06:17:50.845Z,119.75
2019-04-06T06:20:20.220Z,130.45
2019-04-06T06:22:49.488Z,124.72
2019-04-06T06:25:18.805Z,113.42
2019-04-06T06:27:48.256Z,121.22
2019-04-06T06:30:17.807Z,121.35
2019-04-06T06:32:48.263Z,125.90
2019-04-06T06:35:17.834Z,119.42
2019-04-06T06:37:47.268Z,117.10
2019-04-06T06:40:16.757Z,125.58
2019-04-06T06:42:47.606Z,128.18
2019-04-06T06:45:16.971Z,125.45
2019-04-06T06:47:46.484Z,125.92
2019-04-06T06:50:16.463Z,127.72
2019-04-06T06:52:45.925Z,131.90
2019-04-06T06:55:15.253Z,123.75
2019-04-06T06:57:44.797Z,121.50
2019-04-06T07:00:14.510Z,128.38
2019-04-06T07:02:44.056Z,130.00
2019-04-06T07:05:13.695Z,127.27
2019-04-06T07:07:44.628Z,124.12
2019-04-06T07:10:14.271Z,123.82
2019-04-06T07:12:43.633Z,128.30
2019-04-06T07:15:13.000Z,126.27
2019-04-06T07:17:42.549Z,121.67
2019-04-06T07:20:12.438Z,122.55
2019-04-06T07:22:41.837Z,123.97
2019-04-06T07:25:11.408Z,129.15
2019-04-06T07:27:40.734Z,125.85
2019-04-06T07:30:10.211Z,124.12
2019-04-06T07:32:39.737Z,119.53
2019-04-06T07:35:09.346Z,117.25
2019-04-06T07:37:38.854Z,115.67
2019-04-06T07:40:09.791Z,115.67
2019-04-06T07:42:39.163Z,118.20
2019-04-06T07:45:09.190Z,118.75
2019-04-06T07:47:38.591Z,123.60
2019-04-06T07:50:08.197Z,128.30
2019-04-06T07:52:38.649Z,119.15
2019-04-06T07:55:08.177Z,125.27
2019-04-06T07:57:37.575Z,126.65
2019-04-06T08:00:08.028Z,121.82
2019-04-06T08:02:37.856Z,122.17
2019-04-06T08:05:07.307Z,125.87
2019-04-06T08:07:36.747Z,116.20
2019-04-06T08:10:06.638Z,117.03
2019-04-06T08:12:36.046Z,117.87
2019-04-06T08:15:08.236Z,117.10
2019-04-06T08:17:37.618Z,110.20
2019-04-06T08:20:08.537Z,114.40
2019-04-06T08:22:37.878Z,111.75
2019-04-06T08:25:07.443Z,110.22
2019-04-06T08:27:36.868Z,112.00
2019-04-06T08:30:11.175Z,115.15
2019-04-06T08:32:40.806Z,110.90
2019-04-06T08:35:11.584Z,112.65
2019-04-06T08:37:41.152Z,113.37
2019-04-06T08:40:10.536Z,104.20
2019-04-06T08:42:39.875Z,111.57
2019-04-06T08:45:09.311Z,103.55
2019-04-06T08:47:41.697Z,107.22
2019-04-06T08:50:11.877Z,103.32
2019-04-06T08:52:41.253Z,106.92
2019-04-06T08:55:10.742Z,107.72
2019-04-06T08:57:40.170Z,98.60
2019-04-06T09:00:10.016Z,102.02
2019-04-06T09:02:39.340Z,102.67
2019-04-06T09:05:08.908Z,100.80
2019-04-06T09:07:40.571Z,102.67
2019-04-06T09:10:10.053Z,102.87
2019-04-06T09:12:39.717Z,97.80
2019-04-06T09:15:10.000Z,101.00
2019-04-06T09:17:39.957Z,93.80
2019-04-06T09:20:09.347Z,99.07
2019-04-06T09:22:38.731Z,105.60
2019-04-06T09:25:08.388Z,100.40
2019-04-06T09:27:37.833Z,117.90
2019-04-06T09:30:07.512Z,118.57
2019-04-06T09:32:36.937Z,110.63
2019-04-06T09:35:06.243Z,129.55
2019-04-06T09:37:35.622Z,118.08
2019-04-06T09:40:07.248Z,117.70
2019-04-06T09:42:36.791Z,119.60
2019-04-06T09:45:12.542Z,115.03
2019-04-06T09:47:53.777Z,118.00
2019-04-06T09:50:27.749Z,110.08
2019-04-06T09:53:01.946Z,113.03
2019-04-06T09:55:49.116Z,112.15
2019-04-06T09:58:20.258Z,106.05
2019-04-06T10:01:03.689Z,106.92
2019-04-06T10:03:49.921Z,101.90
2019-04-06T10:06:21.117Z,95.83
2019-04-06T10:08:56.634Z,100.65
2019-04-06T10:11:30.572Z,105.72
2019-04-06T10:14:17.997Z,101.85
2019-04-06T10:16:56.316Z,106.30
2019-04-06T10:19:43.455Z,106.20
2019-04-06T10:22:14.423Z,102.35
2019-04-06T10:25:01.842Z,96.05
2019-04-06T10:27:33.171Z,91.63
2019-04-06T10:30:16.055Z,92.88
2019-04-06T10:32:53.380Z,87.22
2019-04-06T10:35:36.586Z,90.30
2019-04-06T10:38:07.663Z,86.80
2019-04-06T10:40:50.945Z,81.78
2019-04-06T10:43:38.258Z,78.55
2019-04-06T10:46:09.402Z,79.58
2019-04-06T10:48:56.814Z,73.83
2019-04-06T10:51:36.647Z,72.95
2019-04-06T10:54:16.754Z,71.45
2019-04-06T10:56:53.553Z,63.50
2019-04-06T10:59:26.991Z,64.60
2019-04-06T11:01:57.919Z,63.73
2019-04-06T11:04:46.563Z,59.23
2019-04-06T11:07:29.602Z,54.95
2019-04-06T11:10:03.734Z,64.15
2019-04-06T11:12:41.024Z,65.65
2019-04-06T11:15:22.750Z,64.32
2019-04-06T11:17:59.523Z,71.77
2019-04-06T11:20:39.258Z,62.25
2019-04-06T11:23:27.115Z,62.00
2019-04-06T11:26:10.193Z,60.20
2019-04-06T11:28:47.448Z,62.40
2019-04-06T11:31:18.676Z,67.58
2019-04-06T11:33:49.612Z,61.92
2019-04-06T11:36:29.831Z,61.42
2019-04-06T11:39:09.282Z,66.17
2019-04-06T11:41:43.432Z,67.35
2019-04-06T11:44:14.521Z,67.27
2019-04-06T11:47:02.436Z,64.35
2019-04-06T11:49:34.482Z,67.95
2019-04-06T11:52:05.479Z,67.07
2019-04-06T11:54:41.094Z,65.20
2019-04-06T11:57:18.353Z,65.55
2019-04-06T12:00:06.477Z,74.55
2019-04-06T12:02:45.178Z,65.45
2019-04-06T12:05:32.201Z,70.47
2019-04-06T12:08:03.129Z,71.30
2019-04-06T12:10:52.517Z,71.72
2019-04-06T12:13:23.489Z,66.85
2019-04-06T12:16:07.990Z,67.97
2019-04-06T12:18:38.992Z,62.78
2019-04-06T12:21:13.134Z,66.57
2019-04-06T12:23:53.125Z,62.65
2019-04-06T12:26:33.189Z,64.05
2019-04-06T12:29:04.329Z,61.30
2019-04-06T12:31:44.694Z,68.25
2019-04-06T12:34:21.814Z,66.65
2019-04-06T12:36:52.762Z,63.98
2019-04-06T12:39:23.879Z,64.85
2019-04-06T12:42:07.175Z,65.20
2019-04-06T12:44:54.396Z,62.30
2019-04-06T12:47:28.651Z,65.55
2019-04-06T12:50:02.752Z,61.35
2019-04-06T12:52:50.419Z,61.90
2019-04-06T12:55:23.302Z,60.63
2019-04-06T12:58:07.579Z,58.70
2019-04-06T13:00:54.369Z,56.20
2019-04-06T13:03:41.967Z,54.35
2019-04-06T13:06:15.418Z,54.00
2019-04-06T13:09:01.369Z,58.73
2019-04-06T13:11:50.206Z,55.63
2019-04-06T13:14:27.217Z,51.77
2019-04-06T13:17:13.394Z,50.28
2019-04-06T13:19:56.434Z,48.25
2019-04-06T13:22:39.437Z,45.15
2019-04-06T13:25:12.858Z,37.98
2019-04-06T13:27:53.119Z,39.85
2019-04-06T13:30:27.213Z,37.35
2019-04-06T13:33:01.515Z,33.67
2019-04-06T13:35:32.459Z,34.50
2019-04-06T13:38:06.554Z,30.80
2019-04-06T13:40:51.351Z,34.67
2019-04-06T13:43:28.973Z,32.67
2019-04-06T13:46:00.327Z,27.55
2019-04-06T13:48:47.565Z,25.92
2019-04-06T13:51:24.502Z,30.32
2019-04-06T13:53:55.508Z,31.23
2019-04-06T13:56:32.853Z,26.65
2019-04-06T13:59:09.732Z,31.80
2019-04-06T14:01:40.898Z,25.10
2019-04-06T14:04:24.958Z,26.35
2019-04-06T14:06:58.445Z,25.95
2019-04-06T14:09:44.135Z,26.80
2019-04-06T14:12:27.402Z,26.23
2019-04-06T14:15:07.472Z,25.70
2019-04-06T14:17:47.593Z,24.60
2019-04-06T14:20:33.948Z,26.57
2019-04-06T14:23:06.160Z,27.17
2019-04-06T14:25:53.853Z,28.23
2019-04-06T14:28:27.665Z,28.27
2019-04-06T14:31:07.579Z,28.10
2019-04-06T14:33:56.197Z,29.75
2019-04-06T14:36:27.391Z,31.15
2019-04-06T14:38:58.522Z,28.77
2019-04-06T14:41:45.754Z,31.87
2019-04-06T14:44:16.781Z,31.17
2019-04-06T14:46:51.099Z,33.13
2019-04-06T14:49:31.807Z,33.70
2019-04-06T14:52:09.782Z,35.98
2019-04-06T14:54:53.404Z,35.23
2019-04-06T14:57:40.829Z,34.38
2019-04-06T15:00:21.087Z,34.88
2019-04-06T15:03:10.511Z,30.25
2019-04-06T15:05:52.323Z,31.57
2019-04-06T15:08:23.359Z,33.38
2019-04-06T15:11:00.561Z,35.38
2019-04-06T15:13:46.411Z,35.23
2019-04-06T15:16:26.723Z,34.90
2019-04-06T15:18:57.940Z,36.08
2019-04-06T15:21:34.948Z,35.58
2019-04-06T15:24:22.195Z,35.75
2019-04-06T15:27:02.318Z,35.30
2019-04-06T15:29:33.399Z,40.17
2019-04-06T15:32:07.370Z,39.27
2019-04-06T15:34:50.889Z,40.60
2019-04-06T15:37:37.141Z,41.63
2019-04-06T15:40:08.763Z,42.65
2019-04-06T15:42:51.896Z,43.38
2019-04-06T15:45:30.315Z,39.50
2019-04-06T15:48:04.248Z,42.62
2019-04-06T15:50:38.227Z,44.95
2019-04-06T15:53:15.133Z,46.25
2019-04-06T15:55:55.475Z,45.85
2019-04-06T15:58:32.306Z,48.83
2019-04-06T16:01:15.597Z,42.35
2019-04-06T16:03:56.094Z,46.37
2019-04-06T16:06:44.012Z,45.12
2019-04-06T16:09:32.647Z,46.45
2019-04-06T16:12:19.967Z,49.40
2019-04-06T16:14:54.048Z,46.77
2019-04-06T16:17:37.479Z,47.40
2019-04-06T16:20:24.096Z,52.08
2019-04-06T16:22:58.013Z,51.90
2019-04-06T16:25:29.645Z,51.68
2019-04-06T16:28:03.613Z,54.38
2019-04-06T16:30:40.627Z,56.18
2019-04-06T16:33:20.443Z,55.83
2019-04-06T16:36:00.452Z,56.28
2019-04-06T16:38:31.764Z,57.05
2019-04-06T16:41:02.720Z,58.78
2019-04-06T16:43:34.057Z,58.15
2019-04-06T16:46:07.603Z,55.55
2019-04-06T16:48:38.609Z,54.55
2019-04-06T16:51:09.583Z,55.70
2019-04-06T16:53:40.500Z,57.70
2019-04-06T16:56:24.279Z,57.65
2019-04-06T16:59:01.541Z,57.15
2019-04-06T17:01:38.525Z,56.53
2019-04-06T17:04:12.777Z,59.48
2019-04-06T17:06:46.578Z,61.92
2019-04-06T17:09:23.561Z,57.62
2019-04-06T17:12:03.965Z,62.40
2019-04-06T17:14:44.104Z,62.27
2019-04-06T17:17:20.834Z,64.60
2019-04-06T17:19:57.777Z,64.15
2019-04-06T17:22:28.781Z,64.40
2019-04-06T17:24:59.772Z,64.22
2019-04-06T17:27:49.007Z,65.52
2019-04-06T17:30:35.334Z,64.03
2019-04-06T17:33:24.142Z,61.50
2019-04-06T17:35:58.302Z,71.82
2019-04-06T17:38:29.478Z,70.50
2019-04-06T17:41:06.245Z,73.95
2019-04-06T17:43:40.325Z,70.03
2019-04-06T17:46:11.570Z,78.17
2019-04-06T17:48:58.774Z,73.35
2019-04-06T17:51:29.938Z,76.02
2019-04-06T17:54:00.973Z,78.25
2019-04-06T17:56:44.362Z,77.55
2019-04-06T17:59:18.812Z,79.92
2019-04-06T18:01:52.958Z,82.53
2019-04-06T18:04:33.045Z,84.95
2019-04-06T18:07:04.131Z,84.60
2019-04-06T18:09:51.515Z,81.37
2019-04-06T18:12:24.145Z,82.82
2019-04-06T18:14:53.568Z,82.20
2019-04-06T18:17:23.167Z,81.00
2019-04-06T18:19:52.941Z,84.77
2019-04-06T18:22:22.341Z,82.02
2019-04-06T18:24:52.161Z,87.78
2019-04-06T18:27:21.601Z,84.95
2019-04-06T18:29:51.144Z,82.57
2019-04-06T18:32:24.893Z,86.37
2019-04-06T18:37:26.692Z,82.88
2019-04-06T18:40:00.801Z,85.53
2019-04-06T18:42:30.181Z,85.32
2019-04-06T18:45:01.239Z,90.45
2019-04-06T18:47:32.515Z,82.33
2019-04-06T18:50:01.929Z,91.28
2019-04-06T18:52:31.683Z,94.05
2019-04-06T18:55:01.223Z,97.40
2019-04-06T18:57:32.719Z,96.67
2019-04-06T19:00:02.118Z,104.53
2019-04-06T19:02:31.758Z,105.17
2019-04-06T19:05:01.347Z,109.17
2019-04-06T19:07:30.738Z,109.05
2019-04-06T19:10:00.362Z,110.90
2019-04-06T19:12:30.287Z,110.12
2019-04-06T19:15:00.117Z,110.45
2019-04-06T19:17:29.630Z,114.32
2019-04-06T19:19:58.926Z,112.32
2019-04-06T19:22:28.439Z,112.65
2019-04-06T19:24:59.449Z,128.27
2019-04-06T19:27:29.647Z,123.95
2019-04-06T19:29:59.611Z,122.55
2019-04-06T19:32:28.988Z,130.65
2019-04-06T19:35:01.227Z,127.97
2019-04-06T19:37:30.799Z,129.55
2019-04-06T19:40:00.651Z,138.37
2019-04-06T19:42:30.220Z,136.40
2019-04-06T19:44:59.582Z,138.75
2019-04-06T19:47:28.980Z,148.78
2019-04-06T19:49:58.311Z,142.43
2019-04-06T19:52:28.300Z,145.97
2019-04-06T19:54:57.996Z,155.00
2019-04-06T19:57:27.345Z,158.68
2019-04-06T19:59:57.121Z,157.40
2019-04-06T20:02:26.760Z,166.20
2019-04-06T20:04:56.447Z,163.32
2019-04-06T20:07:25.734Z,159.72
2019-04-06T20:09:55.664Z,158.78
2019-04-06T20:12:25.053Z,151.18
2019-04-06T20:14:55.511Z,152.93
2019-04-06T20:17:25.137Z,157.15
2019-04-06T20:19:54.467Z,164.93
2019-04-06T20:22:23.843Z,165.73
2019-04-06T20:24:53.203Z,168.07
2019-04-06T20:27:22.509Z,174.95
2019-04-06T20:29:51.906Z,179.95
2019-04-06T20:32:21.355Z,171.45
2019-04-06T20:34:50.778Z,180.15
2019-04-06T20:37:20.612Z,174.70
2019-04-06T20:39:50.204Z,176.70
2019-04-06T20:42:20.006Z,186.73
2019-04-06T20:44:49.593Z,181.00
2019-04-06T20:47:21.525Z,188.07
2019-04-06T20:49:50.921Z,190.85
2019-04-06T20:52:20.534Z,190.07
2019-04-06T20:54:49.784Z,185.45
2019-04-06T20:57:20.230Z,191.22
2019-04-06T20:59:50.218Z,198.82
2019-04-06T21:02:19.816Z,190.32
2019-04-06T21:04:49.351Z,210.48
2019-04-06T21:07:19.792Z,216.50
2019-04-06T21:09:49.411Z,210.08
2019-04-06T21:12:19.231Z,208.80
2019-04-06T21:14:48.480Z,210.23
2019-04-06T21:17:19.625Z,228.37
2019-04-06T21:19:51.518Z,211.30
2019-04-06T21:22:22.854Z,195.57
2019-04-06T21:24:53.171Z,212.57
2019-04-06T21:27:22.702Z,212.55
2019-04-06T21:29:52.828Z,203.10
2019-04-06T21:32:22.698Z,224.88
2019-04-06T21:34:53.970Z,229.55
2019-04-06T21:37:23.275Z,211.18
2019-04-06T21:39:53.271Z,215.72
2019-04-06T21:42:22.998Z,222.30
2019-04-06T21:44:52.476Z,206.97
2019-04-06T21:47:22.015Z,221.28
2019-04-06T21:49:51.474Z,201.90
2019-04-06T21:52:20.936Z,201.02
2019-04-06T21:54:50.469Z,204.43
2019-04-06T21:57:19.818Z,207.22
2019-04-06T21:59:49.796Z,208.28
2019-04-06T22:02:19.440Z,201.35
2019-04-06T22:04:49.695Z,192.53
2019-04-06T22:07:20.292Z,202.25
2019-04-06T22:09:50.416Z,205.40
2019-04-06T22:12:19.909Z,194.50
2019-04-06T22:14:49.278Z,191.73
2019-04-06T22:17:19.673Z,186.35
2019-04-06T22:19:50.067Z,192.13
2019-04-06T22:22:19.497Z,187.72
2019-04-06T22:24:48.770Z,189.03
2019-04-06T22:27:18.547Z,187.53
2019-04-06T22:29:48.148Z,187.55
2019-04-06T22:32:18.041Z,179.82
2019-04-06T22:34:47.608Z,185.75
2019-04-06T22:37:17.866Z,196.68
2019-04-06T22:39:47.594Z,193.32
2019-04-06T22:42:16.869Z,190.60
2019-04-06T22:44:46.457Z,189.77
2019-04-06T22:47:15.860Z,186.28
2019-04-06T22:49:45.532Z,190.53
2019-04-06T22:52:14.950Z,194.60
2019-04-06T22:54:44.544Z,203.18
2019-04-06T22:57:13.802Z,193.32
2019-04-06T22:59:44.732Z,179.27
2019-04-06T23:02:14.644Z,190.28
2019-04-06T23:04:54.810Z,190.85
2019-04-06T23:07:27.061Z,189.32
2019-04-06T23:09:56.796Z,182.97
2019-04-06T23:12:26.408Z,172.93
2019-04-06T23:14:55.743Z,179.93
2019-04-06T23:17:25.137Z,175.95
2019-04-06T23:19:54.674Z,184.48
2019-04-06T23:22:24.052Z,176.65
2019-04-06T23:24:53.542Z,186.55
2019-04-06T23:27:22.809Z,179.05
2019-04-06T23:29:52.213Z,180.27
2019-04-06T23:32:22.297Z,185.50
2019-04-06T23:34:58.869Z,179.57
2019-04-06T23:37:23.206Z,189.93
2019-04-06T23:39:52.959Z,189.62
2019-04-06T23:42:23.940Z,181.97
2019-04-06T23:44:54.149Z,186.22
2019-04-06T23:47:24.655Z,179.03
2019-04-06T23:49:54.011Z,203.92
2019-04-06T23:52:24.024Z,193.25
2019-04-06T23:54:55.535Z,201.42
2019-04-06T23:57:26.560Z,197.37
2019-04-06T23:59:55.996Z,189.47
